sensor_id;sensor_type;location;lat;lon;timestamp;temperature;humidity
1283;DHT22;634;48.810;9.148;2022-08-01T00:00:08;24.70;50.90
1283;DHT22;634;48.810;9.148;2022-08-01T00:02:40;24.80;50.70
1283;DHT22;634;48.810;9.148;2022-08-01T00:05:12;24.80;51.40
1283;DHT22;634;48.810;9.148;2022-08-01T00:07:42;24.80;51.00
1283;DHT22;634;48.810;9.148;2022-08-01T00:10:13;24.70;51.00
1283;DHT22;634;48.810;9.148;2022-08-01T00:12:45;24.70;51.20
1283;DHT22;634;48.810;9.148;2022-08-01T00:15:16;24.70;51.40
1283;DHT22;634;48.810;9.148;2022-08-01T00:17:46;24.70;51.40
1283;DHT22;634;48.810;9.148;2022-08-01T00:20:15;24.70;51.20
1283;DHT22;634;48.810;9.148;2022-08-01T00:22:45;24.60;51.20
1283;DHT22;634;48.810;9.148;2022-08-01T00:25:14;24.60;51.60
1283;DHT22;634;48.810;9.148;2022-08-01T00:27:46;24.60;51.40
1283;DHT22;634;48.810;9.148;2022-08-01T00:30:16;24.50;51.50
1283;DHT22;634;48.810;9.148;2022-08-01T00:32:45;24.50;51.60
1283;DHT22;634;48.810;9.148;2022-08-01T00:35:14;24.50;51.70
1283;DHT22;634;48.810;9.148;2022-08-01T00:37:44;24.50;52.00
1283;DHT22;634;48.810;9.148;2022-08-01T00:40:13;24.50;52.30
1283;DHT22;634;48.810;9.148;2022-08-01T00:42:45;24.50;52.30
1283;DHT22;634;48.810;9.148;2022-08-01T00:45:15;24.40;52.60
1283;DHT22;634;48.810;9.148;2022-08-01T00:47:44;24.40;52.40
1283;DHT22;634;48.810;9.148;2022-08-01T00:50:14;24.40;52.60
1283;DHT22;634;48.810;9.148;2022-08-01T00:52:44;24.20;52.40
1283;DHT22;634;48.810;9.148;2022-08-01T00:55:15;24.20;52.80
1283;DHT22;634;48.810;9.148;2022-08-01T00:57:50;24.10;53.10
1283;DHT22;634;48.810;9.148;2022-08-01T01:00:20;24.20;53.10
1283;DHT22;634;48.810;9.148;2022-08-01T01:02:50;24.10;53.10
1283;DHT22;634;48.810;9.148;2022-08-01T01:05:19;24.10;53.00
1283;DHT22;634;48.810;9.148;2022-08-01T01:07:56;24.10;53.40
1283;DHT22;634;48.810;9.148;2022-08-01T01:10:31;24.10;53.30
1283;DHT22;634;48.810;9.148;2022-08-01T01:13:06;24.10;53.60
1283;DHT22;634;48.810;9.148;2022-08-01T01:15:41;24.00;53.60
1283;DHT22;634;48.810;9.148;2022-08-01T01:18:17;24.10;53.70
1283;DHT22;634;48.810;9.148;2022-08-01T01:21:00;24.00;53.80
1283;DHT22;634;48.810;9.148;2022-08-01T01:23:44;24.00;54.10
1283;DHT22;634;48.810;9.148;2022-08-01T01:26:26;24.00;53.90
1283;DHT22;634;48.810;9.148;2022-08-01T01:29:06;24.10;54.20
1283;DHT22;634;48.810;9.148;2022-08-01T01:31:43;24.00;54.20
1283;DHT22;634;48.810;9.148;2022-08-01T01:34:15;23.90;54.40
1283;DHT22;634;48.810;9.148;2022-08-01T01:36:47;23.80;54.70
1283;DHT22;634;48.810;9.148;2022-08-01T01:39:18;23.80;54.90
1283;DHT22;634;48.810;9.148;2022-08-01T01:41:49;23.90;54.80
1283;DHT22;634;48.810;9.148;2022-08-01T01:44:22;23.80;54.90
1283;DHT22;634;48.810;9.148;2022-08-01T01:46:52;23.80;55.20
1283;DHT22;634;48.810;9.148;2022-08-01T01:49:26;23.70;55.20
1283;DHT22;634;48.810;9.148;2022-08-01T01:51:57;23.70;55.30
1283;DHT22;634;48.810;9.148;2022-08-01T01:54:30;23.70;55.60
1283;DHT22;634;48.810;9.148;2022-08-01T01:57:02;23.70;55.50
1283;DHT22;634;48.810;9.148;2022-08-01T01:59:36;23.70;55.80
1283;DHT22;634;48.810;9.148;2022-08-01T02:02:07;23.70;55.70
1283;DHT22;634;48.810;9.148;2022-08-01T02:04:41;23.80;55.80
1283;DHT22;634;48.810;9.148;2022-08-01T02:07:13;23.80;55.90
1283;DHT22;634;48.810;9.148;2022-08-01T02:09:45;23.80;55.80
1283;DHT22;634;48.810;9.148;2022-08-01T02:12:19;23.80;56.10
1283;DHT22;634;48.810;9.148;2022-08-01T02:14:56;23.70;56.70
1283;DHT22;634;48.810;9.148;2022-08-01T02:17:26;23.70;57.40
1283;DHT22;634;48.810;9.148;2022-08-01T02:19:59;23.60;57.10
1283;DHT22;634;48.810;9.148;2022-08-01T02:22:32;23.60;57.40
1283;DHT22;634;48.810;9.148;2022-08-01T02:25:08;23.50;57.50
1283;DHT22;634;48.810;9.148;2022-08-01T02:27:42;23.50;57.80
1283;DHT22;634;48.810;9.148;2022-08-01T02:30:16;23.50;57.90
1283;DHT22;634;48.810;9.148;2022-08-01T02:32:51;23.50;58.00
1283;DHT22;634;48.810;9.148;2022-08-01T02:35:23;23.50;57.70
1283;DHT22;634;48.810;9.148;2022-08-01T02:37:55;23.40;58.20
1283;DHT22;634;48.810;9.148;2022-08-01T02:40:27;23.30;57.80
1283;DHT22;634;48.810;9.148;2022-08-01T02:43:00;23.30;58.70
1283;DHT22;634;48.810;9.148;2022-08-01T02:45:34;23.20;58.90
1283;DHT22;634;48.810;9.148;2022-08-01T02:48:09;23.20;59.00
1283;DHT22;634;48.810;9.148;2022-08-01T02:50:48;23.30;58.90
1283;DHT22;634;48.810;9.148;2022-08-01T02:53:20;23.20;59.00
1283;DHT22;634;48.810;9.148;2022-08-01T02:55:51;23.20;59.20
1283;DHT22;634;48.810;9.148;2022-08-01T02:58:21;23.10;59.30
1283;DHT22;634;48.810;9.148;2022-08-01T03:00:54;23.10;59.60
1283;DHT22;634;48.810;9.148;2022-08-01T03:03:25;23.00;60.00
1283;DHT22;634;48.810;9.148;2022-08-01T03:05:54;22.90;59.90
1283;DHT22;634;48.810;9.148;2022-08-01T03:08:25;22.80;60.40
1283;DHT22;634;48.810;9.148;2022-08-01T03:10:57;22.80;60.80
1283;DHT22;634;48.810;9.148;2022-08-01T03:13:30;22.90;60.70
1283;DHT22;634;48.810;9.148;2022-08-01T03:16:05;22.90;60.50
1283;DHT22;634;48.810;9.148;2022-08-01T03:18:36;22.90;60.80
1283;DHT22;634;48.810;9.148;2022-08-01T03:21:06;23.00;60.80
1283;DHT22;634;48.810;9.148;2022-08-01T03:23:38;22.90;60.70
1283;DHT22;634;48.810;9.148;2022-08-01T03:26:09;23.00;60.80
1283;DHT22;634;48.810;9.148;2022-08-01T03:28:44;22.90;60.90
1283;DHT22;634;48.810;9.148;2022-08-01T03:31:19;22.90;62.00
1283;DHT22;634;48.810;9.148;2022-08-01T03:33:49;22.70;63.10
1283;DHT22;634;48.810;9.148;2022-08-01T03:36:22;22.60;63.70
1283;DHT22;634;48.810;9.148;2022-08-01T03:38:57;22.60;64.10
1283;DHT22;634;48.810;9.148;2022-08-01T03:41:46;22.50;64.40
1283;DHT22;634;48.810;9.148;2022-08-01T03:44:23;22.50;64.90
1283;DHT22;634;48.810;9.148;2022-08-01T03:46:59;22.50;65.20
1283;DHT22;634;48.810;9.148;2022-08-01T03:49:31;22.60;65.00
1283;DHT22;634;48.810;9.148;2022-08-01T03:52:03;22.60;64.80
1283;DHT22;634;48.810;9.148;2022-08-01T03:54:35;22.50;65.20
1283;DHT22;634;48.810;9.148;2022-08-01T03:57:07;22.50;65.30
1283;DHT22;634;48.810;9.148;2022-08-01T03:59:37;22.60;65.40
1283;DHT22;634;48.810;9.148;2022-08-01T04:02:10;22.60;65.10
1283;DHT22;634;48.810;9.148;2022-08-01T04:04:43;22.70;65.40
1283;DHT22;634;48.810;9.148;2022-08-01T04:07:24;22.70;65.50
1283;DHT22;634;48.810;9.148;2022-08-01T04:09:54;22.70;65.60
1283;DHT22;634;48.810;9.148;2022-08-01T04:12:24;22.80;65.60
1283;DHT22;634;48.810;9.148;2022-08-01T04:14:53;22.90;65.20
1283;DHT22;634;48.810;9.148;2022-08-01T04:17:25;22.80;65.40
1283;DHT22;634;48.810;9.148;2022-08-01T04:19:55;22.80;65.10
1283;DHT22;634;48.810;9.148;2022-08-01T04:22:24;22.90;64.80
1283;DHT22;634;48.810;9.148;2022-08-01T04:24:55;22.90;65.10
1283;DHT22;634;48.810;9.148;2022-08-01T04:27:29;22.90;65.80
1283;DHT22;634;48.810;9.148;2022-08-01T04:30:00;22.80;65.60
1283;DHT22;634;48.810;9.148;2022-08-01T04:32:37;22.80;65.90
1283;DHT22;634;48.810;9.148;2022-08-01T04:35:09;22.90;66.00
1283;DHT22;634;48.810;9.148;2022-08-01T04:37:43;22.90;66.20
1283;DHT22;634;48.810;9.148;2022-08-01T04:40:15;22.90;67.10
1283;DHT22;634;48.810;9.148;2022-08-01T04:42:45;22.80;66.30
1283;DHT22;634;48.810;9.148;2022-08-01T04:45:15;22.90;66.30
1283;DHT22;634;48.810;9.148;2022-08-01T04:47:48;23.00;66.40
1283;DHT22;634;48.810;9.148;2022-08-01T04:50:18;23.00;66.00
1283;DHT22;634;48.810;9.148;2022-08-01T04:52:48;23.10;65.70
1283;DHT22;634;48.810;9.148;2022-08-01T04:55:17;23.00;65.60
1283;DHT22;634;48.810;9.148;2022-08-01T04:57:49;23.00;66.20
1283;DHT22;634;48.810;9.148;2022-08-01T05:00:19;22.90;66.70
1283;DHT22;634;48.810;9.148;2022-08-01T05:02:51;22.80;67.90
1283;DHT22;634;48.810;9.148;2022-08-01T05:05:21;22.70;68.30
1283;DHT22;634;48.810;9.148;2022-08-01T05:07:52;22.80;68.10
1283;DHT22;634;48.810;9.148;2022-08-01T05:10:22;22.90;68.70
1283;DHT22;634;48.810;9.148;2022-08-01T05:12:52;22.80;69.50
1283;DHT22;634;48.810;9.148;2022-08-01T05:15:22;22.80;70.10
1283;DHT22;634;48.810;9.148;2022-08-01T05:17:54;22.80;70.40
1283;DHT22;634;48.810;9.148;2022-08-01T05:20:23;22.90;70.60
1283;DHT22;634;48.810;9.148;2022-08-01T05:22:53;23.00;70.50
1283;DHT22;634;48.810;9.148;2022-08-01T05:25:23;23.10;70.40
1283;DHT22;634;48.810;9.148;2022-08-01T05:27:53;23.10;70.20
1283;DHT22;634;48.810;9.148;2022-08-01T05:30:22;23.30;69.00
1283;DHT22;634;48.810;9.148;2022-08-01T05:32:54;23.40;68.50
1283;DHT22;634;48.810;9.148;2022-08-01T05:35:24;23.50;68.10
1283;DHT22;634;48.810;9.148;2022-08-01T05:37:53;23.50;67.70
1283;DHT22;634;48.810;9.148;2022-08-01T05:40:23;23.40;68.60
1283;DHT22;634;48.810;9.148;2022-08-01T05:42:52;23.40;68.40
1283;DHT22;634;48.810;9.148;2022-08-01T05:45:22;23.50;68.50
1283;DHT22;634;48.810;9.148;2022-08-01T05:47:54;23.60;68.10
1283;DHT22;634;48.810;9.148;2022-08-01T05:50:23;23.60;68.50
1283;DHT22;634;48.810;9.148;2022-08-01T05:52:52;23.70;68.20
1283;DHT22;634;48.810;9.148;2022-08-01T05:55:22;23.80;68.10
1283;DHT22;634;48.810;9.148;2022-08-01T05:57:51;23.90;68.20
1283;DHT22;634;48.810;9.148;2022-08-01T06:00:21;24.00;67.50
1283;DHT22;634;48.810;9.148;2022-08-01T06:02:50;24.10;67.30
1283;DHT22;634;48.810;9.148;2022-08-01T06:05:23;24.20;67.10
1283;DHT22;634;48.810;9.148;2022-08-01T06:07:52;24.30;66.60
1283;DHT22;634;48.810;9.148;2022-08-01T06:10:22;24.50;66.00
1283;DHT22;634;48.810;9.148;2022-08-01T06:12:52;24.50;65.60
1283;DHT22;634;48.810;9.148;2022-08-01T06:15:21;24.60;65.50
1283;DHT22;634;48.810;9.148;2022-08-01T06:17:50;24.70;65.10
1283;DHT22;634;48.810;9.148;2022-08-01T06:20:25;24.90;64.40
1283;DHT22;634;48.810;9.148;2022-08-01T06:22:54;25.10;64.10
1283;DHT22;634;48.810;9.148;2022-08-01T06:25:24;25.20;63.70
1283;DHT22;634;48.810;9.148;2022-08-01T06:27:54;25.30;63.20
1283;DHT22;634;48.810;9.148;2022-08-01T06:30:23;25.40;63.30
1283;DHT22;634;48.810;9.148;2022-08-01T06:32:53;25.40;63.00
1283;DHT22;634;48.810;9.148;2022-08-01T06:35:27;25.50;62.60
1283;DHT22;634;48.810;9.148;2022-08-01T06:38:01;25.60;62.20
1283;DHT22;634;48.810;9.148;2022-08-01T06:40:31;25.70;61.80
1283;DHT22;634;48.810;9.148;2022-08-01T06:43:00;25.80;61.60
1283;DHT22;634;48.810;9.148;2022-08-01T06:45:30;25.90;61.10
1283;DHT22;634;48.810;9.148;2022-08-01T06:47:59;25.90;60.90
1283;DHT22;634;48.810;9.148;2022-08-01T06:50:32;25.90;60.60
1283;DHT22;634;48.810;9.148;2022-08-01T06:53:02;26.10;60.50
1283;DHT22;634;48.810;9.148;2022-08-01T06:55:31;26.20;60.00
1283;DHT22;634;48.810;9.148;2022-08-01T06:58:01;26.20;60.50
1283;DHT22;634;48.810;9.148;2022-08-01T07:00:33;26.40;59.60
1283;DHT22;634;48.810;9.148;2022-08-01T07:03:02;26.50;59.00
1283;DHT22;634;48.810;9.148;2022-08-01T07:05:34;26.70;58.40
1283;DHT22;634;48.810;9.148;2022-08-01T07:08:04;26.80;58.20
1283;DHT22;634;48.810;9.148;2022-08-01T07:10:34;26.90;57.60
1283;DHT22;634;48.810;9.148;2022-08-01T07:13:03;27.00;57.70
1283;DHT22;634;48.810;9.148;2022-08-01T07:15:33;27.00;57.00
1283;DHT22;634;48.810;9.148;2022-08-01T07:18:02;27.00;57.00
1283;DHT22;634;48.810;9.148;2022-08-01T07:20:35;26.90;57.20
1283;DHT22;634;48.810;9.148;2022-08-01T07:23:06;26.90;57.20
1283;DHT22;634;48.810;9.148;2022-08-01T07:25:35;27.00;57.30
1283;DHT22;634;48.810;9.148;2022-08-01T07:28:05;27.00;57.20
1283;DHT22;634;48.810;9.148;2022-08-01T07:30:34;27.10;57.10
1283;DHT22;634;48.810;9.148;2022-08-01T07:33:04;27.10;56.60
1283;DHT22;634;48.810;9.148;2022-08-01T07:35:36;27.20;56.70
1283;DHT22;634;48.810;9.148;2022-08-01T07:38:06;27.40;56.20
1283;DHT22;634;48.810;9.148;2022-08-01T07:40:36;27.40;55.70
1283;DHT22;634;48.810;9.148;2022-08-01T07:43:05;27.40;55.40
1283;DHT22;634;48.810;9.148;2022-08-01T07:45:37;27.50;55.30
1283;DHT22;634;48.810;9.148;2022-08-01T07:48:07;27.50;55.20
1283;DHT22;634;48.810;9.148;2022-08-01T07:50:39;27.60;55.00
1283;DHT22;634;48.810;9.148;2022-08-01T07:53:09;27.80;54.60
1283;DHT22;634;48.810;9.148;2022-08-01T07:55:38;28.00;54.30
1283;DHT22;634;48.810;9.148;2022-08-01T07:58:08;28.30;54.50
1283;DHT22;634;48.810;9.148;2022-08-01T08:00:37;28.70;53.60
1283;DHT22;634;48.810;9.148;2022-08-01T08:03:07;29.00;52.00
1283;DHT22;634;48.810;9.148;2022-08-01T08:05:41;29.20;51.40
1283;DHT22;634;48.810;9.148;2022-08-01T08:08:11;29.00;51.10
1283;DHT22;634;48.810;9.148;2022-08-01T08:10:42;28.70;51.70
1283;DHT22;634;48.810;9.148;2022-08-01T08:13:11;28.40;52.30
1283;DHT22;634;48.810;9.148;2022-08-01T08:15:41;28.40;53.40
1283;DHT22;634;48.810;9.148;2022-08-01T08:18:10;28.40;52.30
1283;DHT22;634;48.810;9.148;2022-08-01T08:20:43;28.40;52.30
1283;DHT22;634;48.810;9.148;2022-08-01T08:23:13;28.70;52.50
1283;DHT22;634;48.810;9.148;2022-08-01T08:25:55;28.90;51.80
1283;DHT22;634;48.810;9.148;2022-08-01T08:28:24;29.10;51.10
1283;DHT22;634;48.810;9.148;2022-08-01T08:30:54;29.20;51.10
1283;DHT22;634;48.810;9.148;2022-08-01T08:33:23;29.30;50.90
1283;DHT22;634;48.810;9.148;2022-08-01T08:35:55;29.50;50.60
1283;DHT22;634;48.810;9.148;2022-08-01T08:38:25;29.70;49.80
1283;DHT22;634;48.810;9.148;2022-08-01T08:40:56;30.00;49.90
1283;DHT22;634;48.810;9.148;2022-08-01T08:43:26;30.10;49.10
1283;DHT22;634;48.810;9.148;2022-08-01T08:45:56;30.40;49.40
1283;DHT22;634;48.810;9.148;2022-08-01T08:48:28;30.60;48.90
1283;DHT22;634;48.810;9.148;2022-08-01T08:51:01;30.90;47.90
1283;DHT22;634;48.810;9.148;2022-08-01T08:53:32;31.30;47.60
1283;DHT22;634;48.810;9.148;2022-08-01T08:56:02;31.50;46.60
1283;DHT22;634;48.810;9.148;2022-08-01T08:58:36;31.70;46.40
1283;DHT22;634;48.810;9.148;2022-08-01T09:01:05;31.50;46.50
1283;DHT22;634;48.810;9.148;2022-08-01T09:03:36;31.30;46.90
1283;DHT22;634;48.810;9.148;2022-08-01T09:06:10;31.00;47.30
1283;DHT22;634;48.810;9.148;2022-08-01T09:08:42;30.80;47.90
1283;DHT22;634;48.810;9.148;2022-08-01T09:11:12;30.80;48.10
1283;DHT22;634;48.810;9.148;2022-08-01T09:13:41;30.90;47.90
1283;DHT22;634;48.810;9.148;2022-08-01T09:16:16;31.00;47.40
1283;DHT22;634;48.810;9.148;2022-08-01T09:18:46;31.10;46.90
1283;DHT22;634;48.810;9.148;2022-08-01T09:21:20;31.00;47.20
1283;DHT22;634;48.810;9.148;2022-08-01T09:23:53;31.00;47.80
1283;DHT22;634;48.810;9.148;2022-08-01T09:26:30;30.60;47.70
1283;DHT22;634;48.810;9.148;2022-08-01T09:29:00;30.50;48.00
1283;DHT22;634;48.810;9.148;2022-08-01T09:31:39;30.50;48.50
1283;DHT22;634;48.810;9.148;2022-08-01T09:34:08;30.70;47.90
1283;DHT22;634;48.810;9.148;2022-08-01T09:36:49;30.90;47.70
1283;DHT22;634;48.810;9.148;2022-08-01T09:39:23;31.10;47.40
1283;DHT22;634;48.810;9.148;2022-08-01T09:41:55;30.90;48.20
1283;DHT22;634;48.810;9.148;2022-08-01T09:44:44;31.40;46.70
1283;DHT22;634;48.810;9.148;2022-08-01T09:47:14;31.70;46.40
1283;DHT22;634;48.810;9.148;2022-08-01T09:49:45;32.10;45.40
1283;DHT22;634;48.810;9.148;2022-08-01T09:52:18;32.30;45.40
1283;DHT22;634;48.810;9.148;2022-08-01T09:54:54;33.20;43.90
1283;DHT22;634;48.810;9.148;2022-08-01T09:57:30;33.60;42.90
1283;DHT22;634;48.810;9.148;2022-08-01T10:00:00;33.50;42.70
1283;DHT22;634;48.810;9.148;2022-08-01T10:02:40;33.30;43.20
1283;DHT22;634;48.810;9.148;2022-08-01T10:05:11;33.20;43.10
1283;DHT22;634;48.810;9.148;2022-08-01T10:08:00;33.00;43.50
1283;DHT22;634;48.810;9.148;2022-08-01T10:10:30;33.10;44.20
1283;DHT22;634;48.810;9.148;2022-08-01T10:13:04;33.80;43.20
1283;DHT22;634;48.810;9.148;2022-08-01T10:15:35;34.10;41.70
1283;DHT22;634;48.810;9.148;2022-08-01T10:18:09;34.00;41.80
1283;DHT22;634;48.810;9.148;2022-08-01T10:20:40;33.70;42.00
1283;DHT22;634;48.810;9.148;2022-08-01T10:23:12;33.50;42.90
1283;DHT22;634;48.810;9.148;2022-08-01T10:25:43;34.50;41.70
1283;DHT22;634;48.810;9.148;2022-08-01T10:28:15;35.60;39.60
1283;DHT22;634;48.810;9.148;2022-08-01T10:30:45;37.00;37.10
1283;DHT22;634;48.810;9.148;2022-08-01T10:33:16;37.90;36.10
1283;DHT22;634;48.810;9.148;2022-08-01T10:35:46;39.10;34.20
1283;DHT22;634;48.810;9.148;2022-08-01T10:38:21;40.10;32.60
1283;DHT22;634;48.810;9.148;2022-08-01T10:40:50;40.70;31.50
1283;DHT22;634;48.810;9.148;2022-08-01T10:43:20;41.10;30.90
1283;DHT22;634;48.810;9.148;2022-08-01T10:45:50;41.70;30.40
1283;DHT22;634;48.810;9.148;2022-08-01T10:48:24;42.80;29.60
1283;DHT22;634;48.810;9.148;2022-08-01T10:51:00;42.70;29.00
1283;DHT22;634;48.810;9.148;2022-08-01T10:53:33;41.20;30.00
1283;DHT22;634;48.810;9.148;2022-08-01T10:56:03;38.80;32.70
1283;DHT22;634;48.810;9.148;2022-08-01T10:58:43;36.90;35.40
1283;DHT22;634;48.810;9.148;2022-08-01T11:01:23;35.50;37.60
1283;DHT22;634;48.810;9.148;2022-08-01T11:04:00;34.70;38.90
1283;DHT22;634;48.810;9.148;2022-08-01T11:09:39;33.70;40.70
1283;DHT22;634;48.810;9.148;2022-08-01T11:12:10;33.50;41.40
1283;DHT22;634;48.810;9.148;2022-08-01T11:17:42;35.70;37.80
1283;DHT22;634;48.810;9.148;2022-08-01T11:20:14;36.60;36.30
1283;DHT22;634;48.810;9.148;2022-08-01T11:26:13;36.20;36.60
1283;DHT22;634;48.810;9.148;2022-08-01T11:28:45;35.30;38.10
1283;DHT22;634;48.810;9.148;2022-08-01T11:31:33;34.50;39.20
1283;DHT22;634;48.810;9.148;2022-08-01T11:34:05;34.10;39.50
1283;DHT22;634;48.810;9.148;2022-08-01T11:36:37;33.70;40.20
1283;DHT22;634;48.810;9.148;2022-08-01T11:39:19;33.60;40.80
1283;DHT22;634;48.810;9.148;2022-08-01T11:41:51;34.00;40.60
1283;DHT22;634;48.810;9.148;2022-08-01T11:44:24;34.70;39.10
1283;DHT22;634;48.810;9.148;2022-08-01T11:46:59;35.00;38.20
1283;DHT22;634;48.810;9.148;2022-08-01T11:49:43;35.50;37.40
1283;DHT22;634;48.810;9.148;2022-08-01T11:52:19;35.70;36.80
1283;DHT22;634;48.810;9.148;2022-08-01T11:54:53;35.20;37.40
1283;DHT22;634;48.810;9.148;2022-08-01T11:57:30;34.60;39.20
1283;DHT22;634;48.810;9.148;2022-08-01T12:00:04;34.20;39.70
1283;DHT22;634;48.810;9.148;2022-08-01T12:02:38;34.80;39.20
1283;DHT22;634;48.810;9.148;2022-08-01T12:05:10;35.90;36.90
1283;DHT22;634;48.810;9.148;2022-08-01T12:07:41;35.40;37.10
1283;DHT22;634;48.810;9.148;2022-08-01T12:10:14;34.90;38.00
1283;DHT22;634;48.810;9.148;2022-08-01T12:12:50;34.00;39.20
1283;DHT22;634;48.810;9.148;2022-08-01T12:15:23;33.20;40.40
1283;DHT22;634;48.810;9.148;2022-08-01T12:17:57;33.00;41.40
1283;DHT22;634;48.810;9.148;2022-08-01T12:20:33;34.40;40.50
1283;DHT22;634;48.810;9.148;2022-08-01T12:23:07;36.80;36.20
1283;DHT22;634;48.810;9.148;2022-08-01T12:25:38;38.00;33.30
1283;DHT22;634;48.810;9.148;2022-08-01T12:28:12;37.70;33.50
1283;DHT22;634;48.810;9.148;2022-08-01T12:30:47;37.10;34.20
1283;DHT22;634;48.810;9.148;2022-08-01T12:33:18;36.30;35.10
1283;DHT22;634;48.810;9.148;2022-08-01T12:35:48;35.60;36.00
1283;DHT22;634;48.810;9.148;2022-08-01T12:38:20;34.70;37.30
1283;DHT22;634;48.810;9.148;2022-08-01T12:40:51;33.70;39.40
1283;DHT22;634;48.810;9.148;2022-08-01T12:43:23;33.10;41.00
1283;DHT22;634;48.810;9.148;2022-08-01T12:45:54;33.70;41.10
1283;DHT22;634;48.810;9.148;2022-08-01T12:48:27;35.40;38.40
1283;DHT22;634;48.810;9.148;2022-08-01T12:50:59;37.00;35.40
1283;DHT22;634;48.810;9.148;2022-08-01T12:53:34;37.50;34.30
1283;DHT22;634;48.810;9.148;2022-08-01T12:56:06;36.90;34.90
1283;DHT22;634;48.810;9.148;2022-08-01T12:58:39;36.20;35.90
1283;DHT22;634;48.810;9.148;2022-08-01T13:01:09;35.50;37.00
1283;DHT22;634;48.810;9.148;2022-08-01T13:03:57;34.80;38.10
1283;DHT22;634;48.810;9.148;2022-08-01T13:06:29;34.30;38.60
1283;DHT22;634;48.810;9.148;2022-08-01T13:09:04;33.80;39.40
1283;DHT22;634;48.810;9.148;2022-08-01T13:11:35;33.80;39.70
1283;DHT22;634;48.810;9.148;2022-08-01T13:14:07;33.70;40.10
1283;DHT22;634;48.810;9.148;2022-08-01T13:16:46;34.60;38.20
1283;DHT22;634;48.810;9.148;2022-08-01T13:19:18;35.30;37.40
1283;DHT22;634;48.810;9.148;2022-08-01T13:21:55;34.90;37.60
1283;DHT22;634;48.810;9.148;2022-08-01T13:24:28;34.40;38.80
1283;DHT22;634;48.810;9.148;2022-08-01T13:26:59;33.80;39.80
1283;DHT22;634;48.810;9.148;2022-08-01T13:29:33;33.50;40.40
1283;DHT22;634;48.810;9.148;2022-08-01T13:32:12;34.20;39.50
1283;DHT22;634;48.810;9.148;2022-08-01T13:34:42;34.60;39.50
1283;DHT22;634;48.810;9.148;2022-08-01T13:37:14;34.30;39.50
1283;DHT22;634;48.810;9.148;2022-08-01T13:39:44;34.00;39.70
1283;DHT22;634;48.810;9.148;2022-08-01T13:42:15;33.70;40.40
1283;DHT22;634;48.810;9.148;2022-08-01T13:44:47;33.30;40.70
1283;DHT22;634;48.810;9.148;2022-08-01T13:47:17;33.10;40.90
1283;DHT22;634;48.810;9.148;2022-08-01T13:49:46;33.10;41.30
1283;DHT22;634;48.810;9.148;2022-08-01T13:52:18;33.00;41.20
1283;DHT22;634;48.810;9.148;2022-08-01T13:54:47;33.20;40.60
1283;DHT22;634;48.810;9.148;2022-08-01T13:57:17;33.20;40.70
1283;DHT22;634;48.810;9.148;2022-08-01T13:59:50;33.40;40.70
1283;DHT22;634;48.810;9.148;2022-08-01T14:02:22;33.50;40.60
1283;DHT22;634;48.810;9.148;2022-08-01T14:04:51;33.60;40.50
1283;DHT22;634;48.810;9.148;2022-08-01T14:07:24;33.40;40.50
1283;DHT22;634;48.810;9.148;2022-08-01T14:09:53;33.10;41.00
1283;DHT22;634;48.810;9.148;2022-08-01T14:12:23;33.10;41.30
1283;DHT22;634;48.810;9.148;2022-08-01T14:14:55;32.80;41.40
1283;DHT22;634;48.810;9.148;2022-08-01T14:17:24;32.80;41.60
1283;DHT22;634;48.810;9.148;2022-08-01T14:19:54;32.60;41.90
1283;DHT22;634;48.810;9.148;2022-08-01T14:22:25;32.40;42.10
1283;DHT22;634;48.810;9.148;2022-08-01T14:24:57;32.30;42.40
1283;DHT22;634;48.810;9.148;2022-08-01T14:27:29;32.30;42.80
1283;DHT22;634;48.810;9.148;2022-08-01T14:30:06;32.40;42.40
1283;DHT22;634;48.810;9.148;2022-08-01T14:32:36;32.60;42.20
1283;DHT22;634;48.810;9.148;2022-08-01T14:35:08;32.60;41.70
1283;DHT22;634;48.810;9.148;2022-08-01T14:37:37;32.50;41.70
1283;DHT22;634;48.810;9.148;2022-08-01T14:40:09;32.50;42.10
1283;DHT22;634;48.810;9.148;2022-08-01T14:42:39;32.70;41.30
1283;DHT22;634;48.810;9.148;2022-08-01T14:45:13;32.70;41.50
1283;DHT22;634;48.810;9.148;2022-08-01T14:47:43;32.60;41.80
1283;DHT22;634;48.810;9.148;2022-08-01T14:50:14;32.70;42.00
1283;DHT22;634;48.810;9.148;2022-08-01T14:52:43;32.70;41.70
1283;DHT22;634;48.810;9.148;2022-08-01T14:55:13;32.60;41.80
1283;DHT22;634;48.810;9.148;2022-08-01T14:57:43;32.50;41.80
1283;DHT22;634;48.810;9.148;2022-08-01T15:00:15;32.40;42.60
1283;DHT22;634;48.810;9.148;2022-08-01T15:02:46;32.40;42.40
1283;DHT22;634;48.810;9.148;2022-08-01T15:05:15;32.50;42.20
1283;DHT22;634;48.810;9.148;2022-08-01T15:07:45;32.60;42.20
1283;DHT22;634;48.810;9.148;2022-08-01T15:10:14;32.40;42.10
1283;DHT22;634;48.810;9.148;2022-08-01T15:12:44;32.40;42.10
1283;DHT22;634;48.810;9.148;2022-08-01T15:15:18;32.30;42.10
1283;DHT22;634;48.810;9.148;2022-08-01T15:17:50;32.20;42.30
1283;DHT22;634;48.810;9.148;2022-08-01T15:20:22;32.10;42.20
1283;DHT22;634;48.810;9.148;2022-08-01T15:22:53;32.00;42.50
1283;DHT22;634;48.810;9.148;2022-08-01T15:25:23;31.90;42.50
1283;DHT22;634;48.810;9.148;2022-08-01T15:27:52;31.70;42.60
1283;DHT22;634;48.810;9.148;2022-08-01T15:30:24;31.60;42.80
1283;DHT22;634;48.810;9.148;2022-08-01T15:32:54;31.60;42.70
1283;DHT22;634;48.810;9.148;2022-08-01T15:35:25;31.50;43.10
1283;DHT22;634;48.810;9.148;2022-08-01T15:37:55;31.60;43.00
1283;DHT22;634;48.810;9.148;2022-08-01T15:40:25;31.60;42.80
1283;DHT22;634;48.810;9.148;2022-08-01T15:42:54;31.60;42.90
1283;DHT22;634;48.810;9.148;2022-08-01T15:45:28;31.60;43.10
1283;DHT22;634;48.810;9.148;2022-08-01T15:47:58;31.60;43.00
1283;DHT22;634;48.810;9.148;2022-08-01T15:50:29;31.70;43.10
1283;DHT22;634;48.810;9.148;2022-08-01T15:52:59;31.70;42.50
1283;DHT22;634;48.810;9.148;2022-08-01T15:55:28;31.80;42.50
1283;DHT22;634;48.810;9.148;2022-08-01T15:58:00;31.80;42.00
1283;DHT22;634;48.810;9.148;2022-08-01T16:00:32;31.70;42.00
1283;DHT22;634;48.810;9.148;2022-08-01T16:03:02;31.60;42.30
1283;DHT22;634;48.810;9.148;2022-08-01T16:05:32;31.40;42.50
1283;DHT22;634;48.810;9.148;2022-08-01T16:08:02;31.30;43.60
1283;DHT22;634;48.810;9.148;2022-08-01T16:10:32;31.20;43.00
1283;DHT22;634;48.810;9.148;2022-08-01T16:13:01;31.20;43.20
1283;DHT22;634;48.810;9.148;2022-08-01T16:15:34;31.00;43.30
1283;DHT22;634;48.810;9.148;2022-08-01T16:18:08;31.00;43.20
1283;DHT22;634;48.810;9.148;2022-08-01T16:20:40;31.00;43.30
1283;DHT22;634;48.810;9.148;2022-08-01T16:23:09;30.90;43.60
1283;DHT22;634;48.810;9.148;2022-08-01T16:25:39;30.80;43.70
1283;DHT22;634;48.810;9.148;2022-08-01T16:28:10;30.80;44.00
1283;DHT22;634;48.810;9.148;2022-08-01T16:30:42;30.80;43.90
1283;DHT22;634;48.810;9.148;2022-08-01T16:33:12;30.80;43.70
1283;DHT22;634;48.810;9.148;2022-08-01T16:35:41;30.70;44.00
1283;DHT22;634;48.810;9.148;2022-08-01T16:38:11;30.60;44.20
1283;DHT22;634;48.810;9.148;2022-08-01T16:40:42;30.60;44.20
1283;DHT22;634;48.810;9.148;2022-08-01T16:43:15;30.60;44.20
1283;DHT22;634;48.810;9.148;2022-08-01T16:45:50;30.40;44.30
1283;DHT22;634;48.810;9.148;2022-08-01T16:48:22;30.30;44.60
1283;DHT22;634;48.810;9.148;2022-08-01T16:50:55;30.10;45.00
1283;DHT22;634;48.810;9.148;2022-08-01T16:53:24;30.00;45.40
1283;DHT22;634;48.810;9.148;2022-08-01T16:55:54;29.90;45.50